sensor_id;sensor_type;location;lat;lon;timestamp;P1;durP1;ratioP1;P2;durP2;ratioP2
79371;SDS011;68914;51.262;6.802;2023-06-10T00:00:26;10.95;;;8.40;;
79371;SDS011;68914;51.262;6.802;2023-06-10T00:01:27;11.95;;;8.70;;
79371;SDS011;68914;51.262;6.802;2023-06-10T00:02:28;10.80;;;8.07;;
79371;SDS011;68914;51.262;6.802;2023-06-10T00:03:28;12.23;;;8.47;;
79371;SDS011;68914;51.262;6.802;2023-06-10T00:04:29;11.20;;;8.38;;
79371;SDS011;68914;51.262;6.802;2023-06-10T00:05:30;11.82;;;8.40;;
79371;SDS011;68914;51.262;6.802;2023-06-10T00:06:31;12.47;;;8.30;;
79371;SDS011;68914;51.262;6.802;2023-06-10T00:07:36;11.43;;;8.60;;
79371;SDS011;68914;51.262;6.802;2023-06-10T00:08:39;11.50;;;8.10;;
79371;SDS011;68914;51.262;6.802;2023-06-10T00:09:40;12.00;;;8.57;;
79371;SDS011;68914;51.262;6.802;2023-06-10T00:10:40;11.77;;;8.68;;
79371;SDS011;68914;51.262;6.802;2023-06-10T00:11:41;12.43;;;8.70;;
79371;SDS011;68914;51.262;6.802;2023-06-10T00:12:42;12.18;;;8.27;;
79371;SDS011;68914;51.262;6.802;2023-06-10T00:13:44;14.10;;;8.40;;
79371;SDS011;68914;51.262;6.802;2023-06-10T00:14:44;11.00;;;8.25;;
79371;SDS011;68914;51.262;6.802;2023-06-10T00:15:45;12.30;;;8.83;;
79371;SDS011;68914;51.262;6.802;2023-06-10T00:16:46;11.03;;;8.50;;
79371;SDS011;68914;51.262;6.802;2023-06-10T00:17:46;13.23;;;8.93;;
79371;SDS011;68914;51.262;6.802;2023-06-10T00:18:47;12.60;;;8.87;;
79371;SDS011;68914;51.262;6.802;2023-06-10T00:19:49;11.65;;;8.75;;
79371;SDS011;68914;51.262;6.802;2023-06-10T00:20:50;11.68;;;8.93;;
79371;SDS011;68914;51.262;6.802;2023-06-10T00:21:53;12.82;;;8.80;;
79371;SDS011;68914;51.262;6.802;2023-06-10T00:22:53;12.00;;;8.27;;
79371;SDS011;68914;51.262;6.802;2023-06-10T00:23:54;11.52;;;8.30;;
79371;SDS011;68914;51.262;6.802;2023-06-10T00:24:55;11.90;;;8.52;;
79371;SDS011;68914;51.262;6.802;2023-06-10T00:25:58;11.07;;;8.38;;
79371;SDS011;68914;51.262;6.802;2023-06-10T00:28:15;12.63;;;8.50;;
79371;SDS011;68914;51.262;6.802;2023-06-10T00:29:16;14.20;;;9.02;;
79371;SDS011;68914;51.262;6.802;2023-06-10T00:30:16;11.37;;;8.40;;
79371;SDS011;68914;51.262;6.802;2023-06-10T00:31:17;12.67;;;8.70;;
79371;SDS011;68914;51.262;6.802;2023-06-10T00:32:18;11.13;;;8.38;;
79371;SDS011;68914;51.262;6.802;2023-06-10T00:33:18;12.23;;;8.63;;
79371;SDS011;68914;51.262;6.802;2023-06-10T00:34:19;12.55;;;8.68;;
79371;SDS011;68914;51.262;6.802;2023-06-10T00:35:20;12.05;;;8.30;;
79371;SDS011;68914;51.262;6.802;2023-06-10T00:36:20;11.50;;;8.77;;
79371;SDS011;68914;51.262;6.802;2023-06-10T00:37:21;12.88;;;8.80;;
79371;SDS011;68914;51.262;6.802;2023-06-10T00:38:23;13.17;;;8.50;;
79371;SDS011;68914;51.262;6.802;2023-06-10T00:39:24;12.13;;;8.70;;
79371;SDS011;68914;51.262;6.802;2023-06-10T00:40:24;11.88;;;8.55;;
79371;SDS011;68914;51.262;6.802;2023-06-10T00:41:25;12.80;;;8.60;;
79371;SDS011;68914;51.262;6.802;2023-06-10T00:42:26;12.15;;;8.40;;
79371;SDS011;68914;51.262;6.802;2023-06-10T00:43:28;11.88;;;8.35;;
79371;SDS011;68914;51.262;6.802;2023-06-10T00:44:29;14.35;;;8.50;;
79371;SDS011;68914;51.262;6.802;2023-06-10T00:45:29;11.97;;;8.60;;
79371;SDS011;68914;51.262;6.802;2023-06-10T00:46:32;12.40;;;8.57;;
79371;SDS011;68914;51.262;6.802;2023-06-10T00:47:33;14.02;;;9.10;;
79371;SDS011;68914;51.262;6.802;2023-06-10T00:48:37;11.40;;;8.80;;
79371;SDS011;68914;51.262;6.802;2023-06-10T00:49:39;10.75;;;8.50;;
79371;SDS011;68914;51.262;6.802;2023-06-10T00:50:40;11.70;;;8.48;;
79371;SDS011;68914;51.262;6.802;2023-06-10T00:51:41;11.68;;;8.70;;
79371;SDS011;68914;51.262;6.802;2023-06-10T00:52:42;12.50;;;9.00;;
79371;SDS011;68914;51.262;6.802;2023-06-10T00:53:45;12.52;;;9.00;;
79371;SDS011;68914;51.262;6.802;2023-06-10T00:54:46;12.68;;;8.95;;
79371;SDS011;68914;51.262;6.802;2023-06-10T00:55:46;12.10;;;9.25;;
79371;SDS011;68914;51.262;6.802;2023-06-10T00:56:48;14.23;;;9.40;;
79371;SDS011;68914;51.262;6.802;2023-06-10T00:57:49;12.38;;;8.80;;
79371;SDS011;68914;51.262;6.802;2023-06-10T00:58:51;12.23;;;9.13;;
79371;SDS011;68914;51.262;6.802;2023-06-10T00:59:52;12.35;;;8.98;;
79371;SDS011;68914;51.262;6.802;2023-06-10T01:00:53;14.30;;;9.50;;
79371;SDS011;68914;51.262;6.802;2023-06-10T01:01:54;12.25;;;9.15;;
79371;SDS011;68914;51.262;6.802;2023-06-10T01:02:55;12.80;;;8.82;;
79371;SDS011;68914;51.262;6.802;2023-06-10T01:03:57;12.37;;;9.00;;
79371;SDS011;68914;51.262;6.802;2023-06-10T01:04:59;13.20;;;8.98;;
79371;SDS011;68914;51.262;6.802;2023-06-10T01:07:25;13.98;;;9.02;;
79371;SDS011;68914;51.262;6.802;2023-06-10T01:08:43;13.80;;;9.15;;
79371;SDS011;68914;51.262;6.802;2023-06-10T01:09:57;13.15;;;9.00;;
79371;SDS011;68914;51.262;6.802;2023-06-10T01:11:03;12.77;;;9.13;;
79371;SDS011;68914;51.262;6.802;2023-06-10T01:13:21;12.20;;;9.25;;
79371;SDS011;68914;51.262;6.802;2023-06-10T01:14:25;12.85;;;8.98;;
79371;SDS011;68914;51.262;6.802;2023-06-10T01:15:26;12.77;;;9.07;;
79371;SDS011;68914;51.262;6.802;2023-06-10T01:16:27;13.13;;;9.13;;
79371;SDS011;68914;51.262;6.802;2023-06-10T01:17:28;13.75;;;9.23;;
79371;SDS011;68914;51.262;6.802;2023-06-10T01:18:30;12.07;;;9.13;;
79371;SDS011;68914;51.262;6.802;2023-06-10T01:19:32;13.20;;;8.90;;
79371;SDS011;68914;51.262;6.802;2023-06-10T01:20:34;12.73;;;9.27;;
79371;SDS011;68914;51.262;6.802;2023-06-10T01:21:41;12.30;;;8.73;;
79371;SDS011;68914;51.262;6.802;2023-06-10T01:22:42;11.53;;;9.00;;
79371;SDS011;68914;51.262;6.802;2023-06-10T01:23:43;12.75;;;9.35;;
79371;SDS011;68914;51.262;6.802;2023-06-10T01:24:43;13.07;;;9.05;;
79371;SDS011;68914;51.262;6.802;2023-06-10T01:25:49;12.32;;;8.98;;
79371;SDS011;68914;51.262;6.802;2023-06-10T01:27:04;16.20;;;9.00;;
79371;SDS011;68914;51.262;6.802;2023-06-10T01:28:11;13.35;;;9.38;;
79371;SDS011;68914;51.262;6.802;2023-06-10T01:29:30;13.85;;;9.35;;
79371;SDS011;68914;51.262;6.802;2023-06-10T01:32:15;15.80;;;9.27;;
79371;SDS011;68914;51.262;6.802;2023-06-10T01:33:21;12.38;;;8.90;;
79371;SDS011;68914;51.262;6.802;2023-06-10T01:34:29;13.63;;;9.40;;
79371;SDS011;68914;51.262;6.802;2023-06-10T01:35:32;13.90;;;9.40;;
79371;SDS011;68914;51.262;6.802;2023-06-10T01:36:36;13.15;;;9.23;;
79371;SDS011;68914;51.262;6.802;2023-06-10T01:37:38;13.10;;;9.02;;
79371;SDS011;68914;51.262;6.802;2023-06-10T01:38:43;13.23;;;9.43;;
79371;SDS011;68914;51.262;6.802;2023-06-10T01:39:46;13.00;;;9.40;;
79371;SDS011;68914;51.262;6.802;2023-06-10T01:40:48;12.98;;;9.73;;
79371;SDS011;68914;51.262;6.802;2023-06-10T01:41:50;13.50;;;9.32;;
79371;SDS011;68914;51.262;6.802;2023-06-10T01:42:52;14.13;;;9.93;;
79371;SDS011;68914;51.262;6.802;2023-06-10T01:43:54;14.57;;;11.00;;
79371;SDS011;68914;51.262;6.802;2023-06-10T01:44:55;14.68;;;9.88;;
79371;SDS011;68914;51.262;6.802;2023-06-10T01:45:55;12.17;;;9.30;;
79371;SDS011;68914;51.262;6.802;2023-06-10T01:46:56;14.85;;;9.80;;
79371;SDS011;68914;51.262;6.802;2023-06-10T01:47:56;14.13;;;9.30;;
79371;SDS011;68914;51.262;6.802;2023-06-10T01:48:57;14.38;;;9.48;;
79371;SDS011;68914;51.262;6.802;2023-06-10T01:49:58;13.83;;;9.23;;
79371;SDS011;68914;51.262;6.802;2023-06-10T01:50:58;13.63;;;9.35;;
79371;SDS011;68914;51.262;6.802;2023-06-10T01:51:59;14.13;;;9.63;;
79371;SDS011;68914;51.262;6.802;2023-06-10T01:53:00;15.07;;;9.57;;
79371;SDS011;68914;51.262;6.802;2023-06-10T01:54:01;13.27;;;9.52;;
79371;SDS011;68914;51.262;6.802;2023-06-10T01:55:03;14.30;;;10.10;;
79371;SDS011;68914;51.262;6.802;2023-06-10T01:56:04;14.65;;;9.90;;
79371;SDS011;68914;51.262;6.802;2023-06-10T01:57:05;13.10;;;9.27;;
79371;SDS011;68914;51.262;6.802;2023-06-10T01:58:07;13.45;;;9.43;;
79371;SDS011;68914;51.262;6.802;2023-06-10T01:59:08;12.50;;;9.20;;
79371;SDS011;68914;51.262;6.802;2023-06-10T02:00:08;13.07;;;9.48;;
79371;SDS011;68914;51.262;6.802;2023-06-10T02:01:16;14.15;;;9.73;;
79371;SDS011;68914;51.262;6.802;2023-06-10T02:02:16;13.57;;;9.70;;
79371;SDS011;68914;51.262;6.802;2023-06-10T02:03:17;13.05;;;9.50;;
79371;SDS011;68914;51.262;6.802;2023-06-10T02:04:18;12.70;;;9.80;;
79371;SDS011;68914;51.262;6.802;2023-06-10T02:05:19;16.17;;;10.17;;
79371;SDS011;68914;51.262;6.802;2023-06-10T02:06:20;12.35;;;9.50;;
79371;SDS011;68914;51.262;6.802;2023-06-10T02:07:20;13.63;;;9.35;;
79371;SDS011;68914;51.262;6.802;2023-06-10T02:08:21;13.03;;;9.63;;
79371;SDS011;68914;51.262;6.802;2023-06-10T02:09:22;14.68;;;10.07;;
79371;SDS011;68914;51.262;6.802;2023-06-10T02:10:23;14.35;;;9.80;;
79371;SDS011;68914;51.262;6.802;2023-06-10T02:11:24;12.70;;;9.83;;
79371;SDS011;68914;51.262;6.802;2023-06-10T02:12:27;14.07;;;9.23;;
79371;SDS011;68914;51.262;6.802;2023-06-10T02:13:27;12.45;;;9.68;;
79371;SDS011;68914;51.262;6.802;2023-06-10T02:14:28;13.43;;;9.50;;
79371;SDS011;68914;51.262;6.802;2023-06-10T02:15:29;13.47;;;9.93;;
79371;SDS011;68914;51.262;6.802;2023-06-10T02:16:30;12.55;;;9.55;;
79371;SDS011;68914;51.262;6.802;2023-06-10T02:17:31;14.13;;;9.68;;
79371;SDS011;68914;51.262;6.802;2023-06-10T02:18:33;14.38;;;9.60;;
79371;SDS011;68914;51.262;6.802;2023-06-10T02:19:34;12.80;;;9.90;;
79371;SDS011;68914;51.262;6.802;2023-06-10T02:20:36;14.23;;;9.23;;
79371;SDS011;68914;51.262;6.802;2023-06-10T02:21:37;13.38;;;9.82;;
79371;SDS011;68914;51.262;6.802;2023-06-10T02:22:38;13.52;;;9.50;;
79371;SDS011;68914;51.262;6.802;2023-06-10T02:23:42;13.07;;;9.57;;
79371;SDS011;68914;51.262;6.802;2023-06-10T02:24:42;15.50;;;10.00;;
79371;SDS011;68914;51.262;6.802;2023-06-10T02:25:43;13.50;;;9.90;;
79371;SDS011;68914;51.262;6.802;2023-06-10T02:26:43;13.80;;;9.60;;
79371;SDS011;68914;51.262;6.802;2023-06-10T02:27:45;14.40;;;10.18;;
79371;SDS011;68914;51.262;6.802;2023-06-10T02:28:45;12.85;;;10.27;;
79371;SDS011;68914;51.262;6.802;2023-06-10T02:29:48;14.90;;;10.15;;
79371;SDS011;68914;51.262;6.802;2023-06-10T02:30:48;14.20;;;9.77;;
79371;SDS011;68914;51.262;6.802;2023-06-10T02:31:50;13.98;;;10.35;;
79371;SDS011;68914;51.262;6.802;2023-06-10T02:32:53;14.70;;;10.10;;
79371;SDS011;68914;51.262;6.802;2023-06-10T02:33:54;13.77;;;9.98;;
79371;SDS011;68914;51.262;6.802;2023-06-10T02:34:55;13.07;;;10.30;;
79371;SDS011;68914;51.262;6.802;2023-06-10T02:35:58;14.57;;;9.93;;
79371;SDS011;68914;51.262;6.802;2023-06-10T02:37:00;13.95;;;10.35;;
79371;SDS011;68914;51.262;6.802;2023-06-10T02:38:01;15.07;;;10.35;;
79371;SDS011;68914;51.262;6.802;2023-06-10T02:39:03;15.23;;;10.65;;
79371;SDS011;68914;51.262;6.802;2023-06-10T02:40:05;13.33;;;10.20;;
79371;SDS011;68914;51.262;6.802;2023-06-10T02:41:06;15.48;;;10.23;;
79371;SDS011;68914;51.262;6.802;2023-06-10T02:42:07;14.15;;;10.95;;
79371;SDS011;68914;51.262;6.802;2023-06-10T02:43:08;17.60;;;10.60;;
79371;SDS011;68914;51.262;6.802;2023-06-10T02:44:10;13.30;;;10.45;;
79371;SDS011;68914;51.262;6.802;2023-06-10T02:45:10;13.47;;;10.50;;
79371;SDS011;68914;51.262;6.802;2023-06-10T02:46:14;15.45;;;10.90;;
79371;SDS011;68914;51.262;6.802;2023-06-10T02:47:16;13.80;;;10.55;;
79371;SDS011;68914;51.262;6.802;2023-06-10T02:48:17;15.25;;;10.85;;
79371;SDS011;68914;51.262;6.802;2023-06-10T02:49:18;14.77;;;10.23;;
79371;SDS011;68914;51.262;6.802;2023-06-10T02:50:20;15.70;;;10.70;;
79371;SDS011;68914;51.262;6.802;2023-06-10T02:51:30;13.95;;;10.65;;
79371;SDS011;68914;51.262;6.802;2023-06-10T02:52:34;15.50;;;10.38;;
79371;SDS011;68914;51.262;6.802;2023-06-10T02:53:35;13.52;;;10.15;;
79371;SDS011;68914;51.262;6.802;2023-06-10T02:54:41;15.30;;;10.95;;
79371;SDS011;68914;51.262;6.802;2023-06-10T02:55:43;16.63;;;10.40;;
79371;SDS011;68914;51.262;6.802;2023-06-10T02:56:46;15.75;;;11.10;;
79371;SDS011;68914;51.262;6.802;2023-06-10T02:57:53;14.60;;;10.85;;
79371;SDS011;68914;51.262;6.802;2023-06-10T02:58:54;15.70;;;11.18;;
79371;SDS011;68914;51.262;6.802;2023-06-10T02:59:57;14.35;;;11.10;;
79371;SDS011;68914;51.262;6.802;2023-06-10T03:00:59;15.77;;;10.98;;
79371;SDS011;68914;51.262;6.802;2023-06-10T03:02:06;15.70;;;11.52;;
79371;SDS011;68914;51.262;6.802;2023-06-10T03:03:13;15.77;;;11.35;;
79371;SDS011;68914;51.262;6.802;2023-06-10T03:04:25;15.77;;;10.77;;
79371;SDS011;68914;51.262;6.802;2023-06-10T03:05:35;15.35;;;11.45;;
79371;SDS011;68914;51.262;6.802;2023-06-10T03:06:38;14.37;;;10.57;;
79371;SDS011;68914;51.262;6.802;2023-06-10T03:07:48;15.32;;;11.15;;
79371;SDS011;68914;51.262;6.802;2023-06-10T03:08:49;13.80;;;10.38;;
79371;SDS011;68914;51.262;6.802;2023-06-10T03:09:52;14.82;;;10.68;;
79371;SDS011;68914;51.262;6.802;2023-06-10T03:10:53;14.57;;;10.95;;
79371;SDS011;68914;51.262;6.802;2023-06-10T03:11:55;14.77;;;10.73;;
79371;SDS011;68914;51.262;6.802;2023-06-10T03:12:56;14.85;;;10.80;;
79371;SDS011;68914;51.262;6.802;2023-06-10T03:13:58;14.95;;;10.80;;
79371;SDS011;68914;51.262;6.802;2023-06-10T03:15:01;15.73;;;11.13;;
79371;SDS011;68914;51.262;6.802;2023-06-10T03:16:04;15.35;;;10.60;;
79371;SDS011;68914;51.262;6.802;2023-06-10T03:17:08;14.85;;;10.90;;
79371;SDS011;68914;51.262;6.802;2023-06-10T03:18:11;14.98;;;10.77;;
79371;SDS011;68914;51.262;6.802;2023-06-10T03:19:12;14.40;;;10.65;;
79371;SDS011;68914;51.262;6.802;2023-06-10T03:20:16;14.85;;;11.18;;
79371;SDS011;68914;51.262;6.802;2023-06-10T03:21:19;14.45;;;10.90;;
79371;SDS011;68914;51.262;6.802;2023-06-10T03:22:20;14.32;;;10.57;;
79371;SDS011;68914;51.262;6.802;2023-06-10T03:23:36;14.88;;;10.88;;
79371;SDS011;68914;51.262;6.802;2023-06-10T03:24:38;14.52;;;10.98;;
79371;SDS011;68914;51.262;6.802;2023-06-10T03:25:42;15.03;;;10.60;;
79371;SDS011;68914;51.262;6.802;2023-06-10T03:26:45;17.42;;;11.20;;
79371;SDS011;68914;51.262;6.802;2023-06-10T03:27:46;18.80;;;11.05;;
79371;SDS011;68914;51.262;6.802;2023-06-10T03:28:47;14.73;;;11.15;;
79371;SDS011;68914;51.262;6.802;2023-06-10T03:29:49;15.13;;;10.40;;
79371;SDS011;68914;51.262;6.802;2023-06-10T03:30:51;15.05;;;10.82;;
79371;SDS011;68914;51.262;6.802;2023-06-10T03:31:52;14.20;;;10.93;;
79371;SDS011;68914;51.262;6.802;2023-06-10T03:32:53;17.47;;;11.17;;
79371;SDS011;68914;51.262;6.802;2023-06-10T03:33:56;17.17;;;10.77;;
79371;SDS011;68914;51.262;6.802;2023-06-10T03:34:59;15.65;;;11.30;;
79371;SDS011;68914;51.262;6.802;2023-06-10T03:36:02;14.95;;;11.23;;
79371;SDS011;68914;51.262;6.802;2023-06-10T03:37:03;14.88;;;10.90;;
79371;SDS011;68914;51.262;6.802;2023-06-10T03:38:04;14.20;;;10.30;;
79371;SDS011;68914;51.262;6.802;2023-06-10T03:39:05;15.43;;;10.75;;
79371;SDS011;68914;51.262;6.802;2023-06-10T03:40:07;15.27;;;10.80;;
79371;SDS011;68914;51.262;6.802;2023-06-10T03:41:09;15.52;;;10.82;;
79371;SDS011;68914;51.262;6.802;2023-06-10T03:42:13;15.90;;;11.43;;
79371;SDS011;68914;51.262;6.802;2023-06-10T03:43:13;14.60;;;10.73;;
79371;SDS011;68914;51.262;6.802;2023-06-10T03:44:14;15.27;;;10.75;;
79371;SDS011;68914;51.262;6.802;2023-06-10T03:45:15;15.83;;;10.90;;
79371;SDS011;68914;51.262;6.802;2023-06-10T03:46:16;14.70;;;10.82;;
79371;SDS011;68914;51.262;6.802;2023-06-10T03:47:18;16.25;;;11.07;;
79371;SDS011;68914;51.262;6.802;2023-06-10T03:48:18;14.83;;;10.73;;
79371;SDS011;68914;51.262;6.802;2023-06-10T03:49:25;15.00;;;11.00;;
79371;SDS011;68914;51.262;6.802;2023-06-10T03:50:30;16.35;;;11.80;;
79371;SDS011;68914;51.262;6.802;2023-06-10T03:51:31;16.08;;;11.38;;
79371;SDS011;68914;51.262;6.802;2023-06-10T03:52:32;15.82;;;11.30;;
79371;SDS011;68914;51.262;6.802;2023-06-10T03:53:33;15.00;;;10.77;;
79371;SDS011;68914;51.262;6.802;2023-06-10T03:54:34;14.83;;;10.80;;
79371;SDS011;68914;51.262;6.802;2023-06-10T03:55:35;14.93;;;11.57;;
79371;SDS011;68914;51.262;6.802;2023-06-10T03:56:36;15.40;;;11.25;;
79371;SDS011;68914;51.262;6.802;2023-06-10T03:57:37;14.87;;;11.07;;
79371;SDS011;68914;51.262;6.802;2023-06-10T03:58:37;17.15;;;11.70;;
79371;SDS011;68914;51.262;6.802;2023-06-10T03:59:38;16.83;;;11.60;;
79371;SDS011;68914;51.262;6.802;2023-06-10T04:00:39;14.87;;;10.80;;
79371;SDS011;68914;51.262;6.802;2023-06-10T04:01:41;14.82;;;10.93;;
79371;SDS011;68914;51.262;6.802;2023-06-10T04:02:44;16.05;;;11.48;;
79371;SDS011;68914;51.262;6.802;2023-06-10T04:03:58;15.02;;;11.00;;
79371;SDS011;68914;51.262;6.802;2023-06-10T04:04:59;15.82;;;11.57;;
79371;SDS011;68914;51.262;6.802;2023-06-10T04:06:00;15.93;;;11.43;;
79371;SDS011;68914;51.262;6.802;2023-06-10T04:07:01;14.43;;;11.10;;
79371;SDS011;68914;51.262;6.802;2023-06-10T04:08:02;14.80;;;10.80;;
79371;SDS011;68914;51.262;6.802;2023-06-10T04:09:02;14.98;;;11.05;;
79371;SDS011;68914;51.262;6.802;2023-06-10T04:10:03;14.83;;;10.87;;
79371;SDS011;68914;51.262;6.802;2023-06-10T04:11:05;16.20;;;10.88;;
79371;SDS011;68914;51.262;6.802;2023-06-10T04:12:05;14.52;;;11.00;;
79371;SDS011;68914;51.262;6.802;2023-06-10T04:13:09;15.05;;;11.05;;
79371;SDS011;68914;51.262;6.802;2023-06-10T04:14:15;14.98;;;10.93;;
79371;SDS011;68914;51.262;6.802;2023-06-10T04:15:16;16.60;;;10.88;;
79371;SDS011;68914;51.262;6.802;2023-06-10T04:16:17;17.07;;;11.40;;
79371;SDS011;68914;51.262;6.802;2023-06-10T04:17:18;15.57;;;11.48;;
79371;SDS011;68914;51.262;6.802;2023-06-10T04:18:19;16.38;;;11.00;;
79371;SDS011;68914;51.262;6.802;2023-06-10T04:19:20;15.40;;;11.30;;
79371;SDS011;68914;51.262;6.802;2023-06-10T04:20:21;15.20;;;10.82;;
79371;SDS011;68914;51.262;6.802;2023-06-10T04:21:23;14.70;;;10.70;;
79371;SDS011;68914;51.262;6.802;2023-06-10T04:22:25;14.77;;;11.02;;
79371;SDS011;68914;51.262;6.802;2023-06-10T04:23:26;14.77;;;10.75;;
79371;SDS011;68914;51.262;6.802;2023-06-10T04:24:27;16.80;;;10.93;;
79371;SDS011;68914;51.262;6.802;2023-06-10T04:25:29;18.30;;;10.73;;
79371;SDS011;68914;51.262;6.802;2023-06-10T04:26:29;16.13;;;10.90;;
79371;SDS011;68914;51.262;6.802;2023-06-10T04:27:30;14.07;;;10.15;;
79371;SDS011;68914;51.262;6.802;2023-06-10T04:28:31;17.07;;;11.30;;
79371;SDS011;68914;51.262;6.802;2023-06-10T04:29:32;15.68;;;10.73;;
79371;SDS011;68914;51.262;6.802;2023-06-10T04:30:33;15.05;;;10.93;;
79371;SDS011;68914;51.262;6.802;2023-06-10T04:31:35;16.25;;;11.02;;
79371;SDS011;68914;51.262;6.802;2023-06-10T04:32:35;15.47;;;11.17;;
79371;SDS011;68914;51.262;6.802;2023-06-10T04:33:36;15.73;;;11.02;;
79371;SDS011;68914;51.262;6.802;2023-06-10T04:34:38;14.32;;;10.65;;
79371;SDS011;68914;51.262;6.802;2023-06-10T04:35:39;14.50;;;10.23;;
79371;SDS011;68914;51.262;6.802;2023-06-10T04:36:42;14.68;;;10.10;;
79371;SDS011;68914;51.262;6.802;2023-06-10T04:37:43;14.43;;;10.10;;
79371;SDS011;68914;51.262;6.802;2023-06-10T04:38:44;14.60;;;10.30;;
79371;SDS011;68914;51.262;6.802;2023-06-10T04:39:46;13.90;;;9.75;;
79371;SDS011;68914;51.262;6.802;2023-06-10T04:40:47;13.43;;;10.32;;
79371;SDS011;68914;51.262;6.802;2023-06-10T04:41:49;15.13;;;10.10;;
79371;SDS011;68914;51.262;6.802;2023-06-10T04:42:50;14.63;;;9.75;;
79371;SDS011;68914;51.262;6.802;2023-06-10T04:43:51;13.53;;;10.20;;
79371;SDS011;68914;51.262;6.802;2023-06-10T04:44:52;13.20;;;10.38;;
79371;SDS011;68914;51.262;6.802;2023-06-10T04:45:52;13.75;;;9.95;;
79371;SDS011;68914;51.262;6.802;2023-06-10T04:46:53;14.87;;;10.47;;
79371;SDS011;68914;51.262;6.802;2023-06-10T04:47:55;13.93;;;10.50;;
79371;SDS011;68914;51.262;6.802;2023-06-10T04:48:56;14.27;;;10.40;;
79371;SDS011;68914;51.262;6.802;2023-06-10T04:49:57;14.65;;;10.35;;
79371;SDS011;68914;51.262;6.802;2023-06-10T04:50:58;14.13;;;9.88;;
79371;SDS011;68914;51.262;6.802;2023-06-10T04:51:59;14.52;;;10.18;;
79371;SDS011;68914;51.262;6.802;2023-06-10T04:53:00;13.48;;;10.00;;
79371;SDS011;68914;51.262;6.802;2023-06-10T04:54:01;15.47;;;10.23;;
79371;SDS011;68914;51.262;6.802;2023-06-10T04:55:04;15.98;;;10.02;;
79371;SDS011;68914;51.262;6.802;2023-06-10T04:56:05;14.32;;;10.05;;
79371;SDS011;68914;51.262;6.802;2023-06-10T04:57:08;15.25;;;10.40;;
79371;SDS011;68914;51.262;6.802;2023-06-10T04:58:08;15.67;;;9.90;;
79371;SDS011;68914;51.262;6.802;2023-06-10T04:59:09;15.73;;;10.13;;
79371;SDS011;68914;51.262;6.802;2023-06-10T05:00:10;13.93;;;10.10;;
79371;SDS011;68914;51.262;6.802;2023-06-10T05:01:11;14.43;;;10.07;;
79371;SDS011;68914;51.262;6.802;2023-06-10T05:02:11;14.70;;;10.43;;
79371;SDS011;68914;51.262;6.802;2023-06-10T05:03:12;12.13;;;9.30;;
79371;SDS011;68914;51.262;6.802;2023-06-10T05:04:13;17.33;;;10.23;;
79371;SDS011;68914;51.262;6.802;2023-06-10T05:05:13;12.80;;;9.77;;
79371;SDS011;68914;51.262;6.802;2023-06-10T05:06:14;15.73;;;9.87;;
79371;SDS011;68914;51.262;6.802;2023-06-10T05:07:18;14.70;;;10.15;;
79371;SDS011;68914;51.262;6.802;2023-06-10T05:08:19;13.73;;;9.80;;
79371;SDS011;68914;51.262;6.802;2023-06-10T05:09:20;13.68;;;9.80;;
79371;SDS011;68914;51.262;6.802;2023-06-10T05:10:21;13.27;;;9.80;;
79371;SDS011;68914;51.262;6.802;2023-06-10T05:11:21;13.20;;;10.20;;
79371;SDS011;68914;51.262;6.802;2023-06-10T05:12:22;13.23;;;10.00;;
79371;SDS011;68914;51.262;6.802;2023-06-10T05:13:23;13.83;;;9.50;;
79371;SDS011;68914;51.262;6.802;2023-06-10T05:14:23;14.00;;;10.07;;
79371;SDS011;68914;51.262;6.802;2023-06-10T05:15:24;16.30;;;10.87;;
79371;SDS011;68914;51.262;6.802;2023-06-10T05:16:24;15.18;;;10.10;;
79371;SDS011;68914;51.262;6.802;2023-06-10T05:17:25;14.00;;;10.40;;
79371;SDS011;68914;51.262;6.802;2023-06-10T05:18:26;14.55;;;10.70;;
79371;SDS011;68914;51.262;6.802;2023-06-10T05:19:26;15.53;;;10.27;;
79371;SDS011;68914;51.262;6.802;2023-06-10T05:20:27;13.57;;;10.02;;
79371;SDS011;68914;51.262;6.802;2023-06-10T05:21:28;15.02;;;9.95;;
79371;SDS011;68914;51.262;6.802;2023-06-10T05:22:29;12.98;;;9.98;;
79371;SDS011;68914;51.262;6.802;2023-06-10T05:23:30;13.57;;;9.90;;
79371;SDS011;68914;51.262;6.802;2023-06-10T05:24:31;14.63;;;10.52;;
79371;SDS011;68914;51.262;6.802;2023-06-10T05:25:31;16.60;;;10.13;;
79371;SDS011;68914;51.262;6.802;2023-06-10T05:26:32;14.40;;;9.90;;
79371;SDS011;68914;51.262;6.802;2023-06-10T05:27:37;17.27;;;10.80;;
79371;SDS011;68914;51.262;6.802;2023-06-10T05:28:38;13.60;;;10.10;;
79371;SDS011;68914;51.262;6.802;2023-06-10T05:29:39;13.60;;;10.23;;
79371;SDS011;68914;51.262;6.802;2023-06-10T05:30:40;15.00;;;10.07;;
79371;SDS011;68914;51.262;6.802;2023-06-10T05:31:41;15.63;;;10.17;;
79371;SDS011;68914;51.262;6.802;2023-06-10T05:32:42;13.15;;;9.90;;
79371;SDS011;68914;51.262;6.802;2023-06-10T05:33:42;15.27;;;10.55;;
79371;SDS011;68914;51.262;6.802;2023-06-10T05:34:43;14.40;;;10.30;;
79371;SDS011;68914;51.262;6.802;2023-06-10T05:35:44;13.98;;;10.05;;
79371;SDS011;68914;51.262;6.802;2023-06-10T05:36:44;13.97;;;9.93;;
79371;SDS011;68914;51.262;6.802;2023-06-10T05:37:45;15.25;;;10.60;;
79371;SDS011;68914;51.262;6.802;2023-06-10T05:38:46;13.43;;;9.85;;
79371;SDS011;68914;51.262;6.802;2023-06-10T05:39:46;14.47;;;9.60;;
79371;SDS011;68914;51.262;6.802;2023-06-10T05:40:47;14.98;;;10.27;;
79371;SDS011;68914;51.262;6.802;2023-06-10T05:41:48;15.00;;;10.00;;
79371;SDS011;68914;51.262;6.802;2023-06-10T05:42:48;13.70;;;10.15;;
79371;SDS011;68914;51.262;6.802;2023-06-10T05:43:49;14.13;;;10.40;;
79371;SDS011;68914;51.262;6.802;2023-06-10T05:44:50;15.83;;;10.57;;
79371;SDS011;68914;51.262;6.802;2023-06-10T05:45:50;14.93;;;9.90;;
79371;SDS011;68914;51.262;6.802;2023-06-10T05:46:51;13.30;;;10.10;;
79371;SDS011;68914;51.262;6.802;2023-06-10T05:47:51;13.40;;;9.80;;
79371;SDS011;68914;51.262;6.802;2023-06-10T05:48:52;14.50;;;10.30;;
79371;SDS011;68914;51.262;6.802;2023-06-10T05:49:53;16.23;;;10.20;;
79371;SDS011;68914;51.262;6.802;2023-06-10T05:50:53;14.10;;;9.82;;
79371;SDS011;68914;51.262;6.802;2023-06-10T05:51:54;13.60;;;10.00;;
79371;SDS011;68914;51.262;6.802;2023-06-10T05:52:56;14.00;;;10.05;;
79371;SDS011;68914;51.262;6.802;2023-06-10T05:53:57;13.48;;;9.88;;
79371;SDS011;68914;51.262;6.802;2023-06-10T05:54:58;12.90;;;9.33;;
79371;SDS011;68914;51.262;6.802;2023-06-10T05:55:59;12.60;;;9.80;;
79371;SDS011;68914;51.262;6.802;2023-06-10T05:57:00;14.25;;;10.10;;
79371;SDS011;68914;51.262;6.802;2023-06-10T05:58:01;13.60;;;10.00;;
79371;SDS011;68914;51.262;6.802;2023-06-10T05:59:01;13.35;;;9.40;;
79371;SDS011;68914;51.262;6.802;2023-06-10T06:00:02;14.13;;;9.70;;
79371;SDS011;68914;51.262;6.802;2023-06-10T06:01:12;13.52;;;9.77;;
79371;SDS011;68914;51.262;6.802;2023-06-10T06:02:13;13.63;;;9.50;;
79371;SDS011;68914;51.262;6.802;2023-06-10T06:03:14;12.98;;;9.40;;
79371;SDS011;68914;51.262;6.802;2023-06-10T06:04:15;12.20;;;9.13;;
79371;SDS011;68914;51.262;6.802;2023-06-10T06:05:16;12.10;;;9.15;;
79371;SDS011;68914;51.262;6.802;2023-06-10T06:06:16;14.38;;;9.68;;
79371;SDS011;68914;51.262;6.802;2023-06-10T06:07:17;12.30;;;9.15;;
79371;SDS011;68914;51.262;6.802;2023-06-10T06:08:20;12.85;;;9.43;;
79371;SDS011;68914;51.262;6.802;2023-06-10T06:09:21;14.20;;;9.23;;
79371;SDS011;68914;51.262;6.802;2023-06-10T06:10:21;13.95;;;9.23;;